Time;durP1;ratioP1;P1;durP2;ratioP2;P2;SDS_P1;SDS_P2;PMS_P1;PMS_P2;Temp;Humidity;BMP_temperature;BMP_pressure;BME280_temperature;BME280_humidity;BME280_pressure;Samples;Min_cycle;Max_cycle;Signal;HPM_P1;HPM_P2
2024/02/06 00:01:19;;;;;;;19.65;7.00;;;8.20;99.90;;;;;;4969731;28;20033;-41
2024/02/06 00:03:45;;;;;;;18.15;6.70;;;8.20;99.90;;;;;;4970683;28;20122;-44
2024/02/06 00:06:10;;;;;;;20.10;6.50;;;8.20;99.90;;;;;;4963482;28;20039;-46
2024/02/06 00:08:37;;;;;;;22.13;6.50;;;8.20;99.90;;;;;;4949156;28;20023;-44
2024/02/06 00:11:02;;;;;;;20.48;6.05;;;8.20;99.90;;;;;;4965850;28;20023;-47
2024/02/06 00:13:28;;;;;;;20.65;6.75;;;8.20;99.90;;;;;;4964749;28;20445;-42
2024/02/06 00:15:53;;;;;;;18.92;6.50;;;8.20;99.90;;;;;;4962481;28;20027;-46
2024/02/06 00:18:19;;;;;;;23.60;6.15;;;8.20;99.90;;;;;;4962487;28;20027;-48
2024/02/06 00:20:44;;;;;;;17.45;6.82;;;8.20;99.90;;;;;;4952196;28;20519;-42
2024/02/06 00:23:10;;;;;;;19.05;6.00;;;8.20;99.90;;;;;;4939722;28;20030;-41
2024/02/06 00:25:35;;;;;;;17.83;5.68;;;8.20;99.90;;;;;;4970834;28;20384;-42
2024/02/06 00:28:01;;;;;;;16.33;5.47;;;8.20;99.90;;;;;;4971224;28;20038;-47
2024/02/06 00:30:26;;;;;;;26.90;7.32;;;8.20;99.90;;;;;;4972614;28;20062;-41
2024/02/06 00:32:52;;;;;;;14.85;6.95;;;8.20;99.90;;;;;;4973795;28;20436;-42
2024/02/06 00:35:18;;;;;;;17.75;6.13;;;8.20;99.90;;;;;;4973483;28;20065;-41
2024/02/06 00:37:44;;;;;;;21.40;7.40;;;8.20;99.90;;;;;;4956263;28;20027;-47
2024/02/06 00:40:11;;;;;;;21.20;6.20;;;8.30;99.90;;;;;;4973611;28;20065;-44
2024/02/06 00:42:36;;;;;;;20.33;6.47;;;8.30;99.90;;;;;;4973381;28;20049;-38
2024/02/06 00:45:03;;;;;;;16.88;7.05;;;8.30;99.90;;;;;;4973268;28;20023;-41
2024/02/06 00:47:28;;;;;;;22.50;5.85;;;8.30;99.90;;;;;;5008380;23;20046;-49
2024/02/06 00:49:53;;;;;;;17.65;6.95;;;8.20;99.90;;;;;;4975295;28;20121;-47
2024/02/06 00:52:20;;;;;;;16.42;7.13;;;8.20;99.90;;;;;;4992711;28;20030;-47
2024/02/06 00:54:46;;;;;;;19.58;6.45;;;8.20;99.90;;;;;;4975290;28;20022;-52
2024/02/06 00:57:11;;;;;;;15.95;6.65;;;8.20;99.90;;;;;;4992760;28;20037;-50
2024/02/06 00:59:37;;;;;;;23.40;8.18;;;8.20;99.90;;;;;;4975500;28;20502;-48
2024/02/06 01:02:02;;;;;;;23.67;6.45;;;8.20;99.90;;;;;;4992643;28;20054;-51
2024/02/06 01:04:28;;;;;;;19.23;7.78;;;8.30;99.90;;;;;;4974754;28;20087;-48
2024/02/06 01:06:53;;;;;;;13.98;6.68;;;8.20;99.90;;;;;;4992234;28;20038;-47
2024/02/06 01:09:19;;;;;;;20.50;7.85;;;8.20;99.90;;;;;;4992345;28;20085;-52
2024/02/06 01:11:44;;;;;;;16.73;6.63;;;8.20;99.90;;;;;;4975107;28;20399;-51
2024/02/06 01:14:10;;;;;;;31.60;7.03;;;8.20;99.90;;;;;;4992269;28;20022;-51
2024/02/06 01:16:35;;;;;;;23.55;6.68;;;8.20;99.90;;;;;;4992398;28;20031;-49
2024/02/06 01:19:01;;;;;;;24.08;6.78;;;8.20;99.90;;;;;;4975041;28;20026;-52
2024/02/06 01:21:27;;;;;;;25.10;7.50;;;8.20;99.90;;;;;;4992281;28;20042;-51
2024/02/06 01:23:52;;;;;;;17.05;6.38;;;8.20;99.90;;;;;;4992157;28;20111;-51
2024/02/06 01:26:18;;;;;;;20.02;6.88;;;8.20;99.90;;;;;;4992299;28;20026;-48
2024/02/06 01:28:43;;;;;;;23.70;6.93;;;8.20;99.90;;;;;;4992288;28;20038;-49
2024/02/06 01:31:15;;;;;;;21.33;7.55;;;8.10;99.90;;;;;;4992177;28;20518;-48
2024/02/06 01:33:40;;;;;;;19.40;6.03;;;8.10;99.90;;;;;;4991971;28;20052;-46
2024/02/06 01:36:07;;;;;;;20.80;7.32;;;8.00;99.90;;;;;;4974444;28;20064;-52
2024/02/06 01:38:33;;;;;;;16.45;7.10;;;8.10;99.90;;;;;;4992021;28;20102;-49
2024/02/06 01:40:58;;;;;;;18.75;6.78;;;8.10;99.90;;;;;;4992306;28;20097;-52
2024/02/06 01:43:24;;;;;;;16.65;6.90;;;8.10;99.90;;;;;;4991740;28;20187;-51
2024/02/06 01:45:52;;;;;;;17.58;7.05;;;8.10;99.90;;;;;;4992284;28;20551;-48
2024/02/06 01:48:18;;;;;;;24.13;6.63;;;8.00;99.90;;;;;;4991926;28;20046;-53
2024/02/06 01:50:45;;;;;;;20.77;7.40;;;8.10;99.90;;;;;;4991730;28;20030;-52
2024/02/06 01:53:11;;;;;;;22.42;7.05;;;8.00;99.90;;;;;;4991736;28;20018;-51
2024/02/06 01:55:36;;;;;;;13.85;6.65;;;8.00;99.90;;;;;;4974476;28;20529;-53
2024/02/06 01:58:02;;;;;;;21.27;6.80;;;8.00;99.90;;;;;;4991814;28;20080;-46
2024/02/06 02:00:28;;;;;;;20.73;6.60;;;8.00;99.90;;;;;;4991981;28;20080;-50
2024/02/06 02:02:55;;;;;;;21.63;7.10;;;8.00;99.90;;;;;;4974414;28;20081;-46
2024/02/06 02:05:21;;;;;;;18.95;6.25;;;8.00;99.90;;;;;;4991676;28;20088;-49
2024/02/06 02:07:46;;;;;;;18.33;7.15;;;7.90;99.90;;;;;;4974639;28;20129;-48
2024/02/06 02:10:12;;;;;;;13.13;6.25;;;8.00;99.90;;;;;;4992507;28;20034;-53
2024/02/06 02:12:38;;;;;;;19.25;6.43;;;8.00;99.90;;;;;;4991879;28;20038;-47
2024/02/06 02:15:04;;;;;;;20.73;6.80;;;8.00;99.90;;;;;;4991773;28;20077;-53
2024/02/06 02:17:30;;;;;;;16.50;6.65;;;8.00;99.90;;;;;;4992539;28;20031;-49
2024/02/06 02:19:55;;;;;;;14.88;5.78;;;7.90;99.90;;;;;;4995402;28;20359;-53
2024/02/06 02:22:21;;;;;;;12.52;6.28;;;7.90;99.90;;;;;;4978054;28;20113;-48
2024/02/06 02:24:47;;;;;;;26.05;5.22;;;7.90;99.90;;;;;;4995299;28;20022;-50
2024/02/06 02:27:13;;;;;;;16.67;5.78;;;7.90;99.90;;;;;;4995482;28;20034;-51
2024/02/06 02:29:40;;;;;;;17.75;5.30;;;7.90;99.90;;;;;;4995234;28;20076;-51
2024/02/06 02:32:08;;;;;;;15.25;5.72;;;7.90;99.90;;;;;;4995288;28;20030;-53
2024/02/06 02:34:35;;;;;;;16.92;6.15;;;7.90;99.90;;;;;;4994853;28;20439;-48
2024/02/06 02:37:00;;;;;;;32.13;7.57;;;7.90;99.90;;;;;;4977732;28;20114;-52
2024/02/06 02:39:26;;;;;;;19.88;5.68;;;7.90;99.90;;;;;;4995125;28;20050;-54
2024/02/06 02:41:51;;;;;;;17.60;6.07;;;7.90;99.90;;;;;;4977605;28;20041;-51
2024/02/06 02:44:17;;;;;;;15.18;5.82;;;7.90;99.90;;;;;;4977497;28;20030;-49
2024/02/06 02:46:42;;;;;;;17.92;5.85;;;7.90;99.90;;;;;;4994881;28;20503;-49
2024/02/06 02:49:08;;;;;;;18.55;5.72;;;7.90;99.90;;;;;;4977370;28;20033;-50
2024/02/06 02:51:33;;;;;;;13.82;5.25;;;7.90;99.90;;;;;;4977462;28;20034;-47
2024/02/06 02:53:59;;;;;;;23.92;4.88;;;7.90;99.90;;;;;;4994755;28;20388;-50
2024/02/06 02:56:24;;;;;;;11.35;4.80;;;7.90;99.90;;;;;;4994830;28;20049;-51
2024/02/06 02:58:50;;;;;;;14.05;4.60;;;7.90;99.90;;;;;;4977413;28;20034;-50
2024/02/06 03:01:15;;;;;;;8.70;4.00;;;7.90;99.90;;;;;;4993713;28;20022;-53
2024/02/06 03:03:41;;;;;;;13.25;4.00;;;7.90;99.90;;;;;;4976938;28;20407;-51
2024/02/06 03:06:06;;;;;;;11.93;5.15;;;7.90;99.90;;;;;;4994934;28;20036;-51
2024/02/06 03:08:32;;;;;;;8.18;4.10;;;7.90;99.90;;;;;;4977286;28;20050;-50
2024/02/06 03:10:57;;;;;;;10.88;4.95;;;8.00;99.90;;;;;;4994816;28;20426;-48
2024/02/06 03:13:23;;;;;;;22.92;5.97;;;7.90;99.90;;;;;;4994396;28;20022;-53
2024/02/06 03:15:48;;;;;;;10.95;5.82;;;7.90;99.90;;;;;;4993294;28;20392;-48
2024/02/06 03:18:14;;;;;;;11.70;5.20;;;7.90;99.90;;;;;;4994617;28;20064;-49
2024/02/06 03:20:39;;;;;;;19.45;6.80;;;7.90;99.90;;;;;;4977121;28;20424;-50
2024/02/06 03:23:05;;;;;;;13.95;6.25;;;7.80;99.90;;;;;;4977178;28;20022;-47
2024/02/06 03:25:30;;;;;;;11.27;6.10;;;7.80;99.90;;;;;;4976722;28;20053;-48
2024/02/06 03:27:56;;;;;;;13.27;6.18;;;7.80;99.90;;;;;;4993305;28;20037;-51
2024/02/06 03:30:22;;;;;;;25.45;7.05;;;7.70;99.90;;;;;;4994006;28;20105;-47
2024/02/06 03:32:48;;;;;;;11.27;5.85;;;7.70;99.90;;;;;;4994106;28;20102;-50
2024/02/06 03:35:14;;;;;;;23.40;6.88;;;7.70;99.90;;;;;;4994101;28;20373;-52
2024/02/06 03:37:39;;;;;;;15.52;6.13;;;7.70;99.90;;;;;;4994144;28;20034;-48
2024/02/06 03:40:08;;;;;;;18.70;6.88;;;7.70;99.90;;;;;;4976597;28;20026;-49
2024/02/06 03:42:35;;;;;;;14.93;5.70;;;7.70;99.90;;;;;;4994036;28;20026;-50
2024/02/06 03:45:00;;;;;;;16.25;6.57;;;7.70;99.90;;;;;;4976510;28;20117;-49
2024/02/06 03:47:25;;;;;;;15.02;6.63;;;7.70;99.90;;;;;;4976423;28;20129;-47
2024/02/06 03:49:51;;;;;;;16.65;5.68;;;7.70;99.90;;;;;;4976494;28;20022;-46
2024/02/06 03:52:17;;;;;;;18.80;6.20;;;7.60;99.90;;;;;;4994138;28;20057;-51
2024/02/06 03:54:42;;;;;;;19.17;6.25;;;7.70;99.90;;;;;;4993834;28;20049;-48
2024/02/06 03:57:08;;;;;;;12.35;5.50;;;7.70;99.90;;;;;;4976462;28;20057;-48
2024/02/06 03:59:33;;;;;;;12.10;6.10;;;7.70;99.90;;;;;;4976433;28;20026;-47
2024/02/06 04:01:59;;;;;;;16.38;6.55;;;7.70;99.90;;;;;;4993623;28;20034;-47
2024/02/06 04:04:24;;;;;;;10.88;5.20;;;7.60;99.90;;;;;;4993527;28;20027;-49
2024/02/06 04:06:50;;;;;;;13.63;5.53;;;7.70;99.90;;;;;;4993376;28;20022;-49
2024/02/06 04:09:15;;;;;;;15.02;5.75;;;7.60;99.90;;;;;;4993310;28;20106;-48
2024/02/06 04:11:41;;;;;;;11.90;6.68;;;7.60;99.90;;;;;;5008468;28;20633;-47
2024/02/06 04:14:06;;;;;;;23.52;5.97;;;7.60;99.90;;;;;;4993290;28;20402;-47
2024/02/06 04:16:32;;;;;;;19.27;6.00;;;7.60;99.90;;;;;;4993121;28;20027;-50
2024/02/06 04:18:57;;;;;;;12.65;5.35;;;7.60;99.90;;;;;;4991964;28;20502;-49
2024/02/06 04:21:23;;;;;;;17.40;6.93;;;7.60;99.90;;;;;;4993296;28;20026;-47
2024/02/06 04:23:48;;;;;;;15.18;6.00;;;7.60;99.90;;;;;;4993009;28;20058;-53
2024/02/06 04:26:14;;;;;;;14.73;5.80;;;7.60;99.90;;;;;;4993121;28;20030;-48
2024/02/06 04:28:39;;;;;;;13.25;6.45;;;7.60;99.90;;;;;;4993210;28;20034;-49
2024/02/06 04:31:05;;;;;;;14.00;5.22;;;7.60;99.90;;;;;;4993036;28;20546;-48
2024/02/06 04:33:30;;;;;;;13.70;6.40;;;7.60;99.90;;;;;;4993033;28;20480;-50
2024/02/06 04:35:56;;;;;;;11.60;6.60;;;7.60;99.90;;;;;;4993143;28;20037;-50
2024/02/06 04:38:21;;;;;;;10.65;6.25;;;7.60;99.90;;;;;;5008187;28;20023;-50
2024/02/06 04:40:47;;;;;;;9.05;5.95;;;7.60;99.90;;;;;;4992675;28;20459;-50
2024/02/06 04:43:12;;;;;;;15.48;5.15;;;7.60;99.90;;;;;;4992963;28;20114;-47
2024/02/06 04:45:38;;;;;;;12.68;5.07;;;7.60;99.90;;;;;;4992699;28;20037;-51
2024/02/06 04:48:04;;;;;;;14.23;6.20;;;7.60;99.90;;;;;;4991508;28;20034;-53
2024/02/06 04:50:30;;;;;;;16.60;5.45;;;7.60;99.90;;;;;;4992715;28;20030;-51
2024/02/06 04:52:59;;;;;;;11.80;5.38;;;7.70;99.90;;;;;;4993073;28;20034;-49
2024/02/06 04:55:25;;;;;;;16.63;6.75;;;7.60;99.90;;;;;;4992664;28;20072;-52
2024/02/06 04:57:51;;;;;;;12.57;5.65;;;7.60;99.90;;;;;;4992517;28;20034;-48
2024/02/06 05:00:17;;;;;;;12.18;5.72;;;7.60;99.90;;;;;;4975198;28;20407;-46
2024/02/06 05:02:43;;;;;;;14.20;5.65;;;7.60;99.90;;;;;;4992644;28;20034;-47
2024/02/06 05:05:08;;;;;;;10.55;5.75;;;7.60;99.90;;;;;;4992716;28;20458;-52
2024/02/06 05:07:34;;;;;;;16.55;5.60;;;7.60;99.90;;;;;;4991188;28;20077;-50
2024/02/06 05:09:59;;;;;;;16.30;5.32;;;7.60;99.90;;;;;;4992479;28;20030;-51
2024/02/06 05:12:25;;;;;;;12.32;5.45;;;7.60;99.90;;;;;;4992507;28;20093;-47
2024/02/06 05:14:51;;;;;;;11.10;6.03;;;7.50;99.90;;;;;;4990975;28;20033;-49
2024/02/06 05:17:16;;;;;;;16.45;6.38;;;7.50;99.90;;;;;;4992340;28;20036;-47
2024/02/06 05:19:42;;;;;;;10.40;6.28;;;7.50;99.90;;;;;;4992340;28;20085;-51
2024/02/06 05:22:09;;;;;;;13.32;5.65;;;7.50;99.90;;;;;;4992386;28;20089;-50
2024/02/06 05:24:35;;;;;;;10.48;5.28;;;7.50;99.90;;;;;;4992028;28;20029;-54
2024/02/06 05:27:03;;;;;;;14.20;5.32;;;7.50;99.90;;;;;;4992238;28;20090;-51
2024/02/06 05:29:30;;;;;;;15.43;7.90;;;7.60;99.90;;;;;;4990947;28;20026;-49
2024/02/06 05:31:55;;;;;;;17.38;5.28;;;7.60;99.90;;;;;;4992224;28;20085;-51
2024/02/06 05:34:21;;;;;;;15.77;5.68;;;7.50;99.90;;;;;;4992208;28;20026;-50
2024/02/06 05:36:47;;;;;;;11.30;6.07;;;7.50;99.90;;;;;;4990945;28;20114;-47
2024/02/06 05:39:13;;;;;;;10.35;6.07;;;7.50;99.90;;;;;;4992215;28;20019;-50
2024/02/06 05:41:38;;;;;;;9.77;5.75;;;7.50;99.90;;;;;;4992141;28;20032;-51
2024/02/06 05:44:04;;;;;;;11.82;5.20;;;7.50;99.90;;;;;;4990576;28;20403;-48
2024/02/06 05:46:30;;;;;;;8.45;5.40;;;7.50;99.90;;;;;;4990782;28;20034;-49
2024/02/06 05:48:56;;;;;;;10.55;6.25;;;7.50;99.90;;;;;;4992214;28;20058;-53
2024/02/06 05:51:21;;;;;;;9.52;4.75;;;7.60;99.90;;;;;;4992513;28;20033;-51
2024/02/06 05:53:47;;;;;;;16.83;5.63;;;7.50;99.90;;;;;;4995982;28;20037;-47
2024/02/06 05:56:12;;;;;;;11.05;5.80;;;7.50;99.90;;;;;;4996317;28;20030;-50
2024/02/06 05:58:41;;;;;;;22.20;5.95;;;7.50;99.90;;;;;;4995891;28;20053;-51
2024/02/06 06:01:07;;;;;;;14.43;5.60;;;7.50;99.90;;;;;;4996129;28;20089;-50
2024/02/06 06:03:32;;;;;;;12.00;5.85;;;7.50;99.90;;;;;;4994598;28;20023;-47
2024/02/06 06:05:58;;;;;;;14.35;7.07;;;7.50;99.90;;;;;;4996011;28;20038;-49
2024/02/06 06:08:23;;;;;;;12.43;5.38;;;7.40;99.90;;;;;;5011045;28;20030;-50
2024/02/06 06:10:49;;;;;;;7.95;5.03;;;7.50;99.90;;;;;;5010788;28;20448;-47
2024/02/06 06:13:15;;;;;;;15.82;5.25;;;7.40;99.90;;;;;;4994316;28;20023;-51
2024/02/06 06:15:40;;;;;;;8.50;4.93;;;7.40;99.90;;;;;;4995708;28;20097;-51
2024/02/06 06:18:06;;;;;;;10.07;5.57;;;7.40;99.90;;;;;;4995804;28;20019;-48
2024/02/06 06:20:32;;;;;;;10.73;5.38;;;7.40;99.90;;;;;;4995649;28;20038;-52
2024/02/06 06:22:58;;;;;;;16.40;5.45;;;7.40;99.90;;;;;;4994585;28;20049;-49
2024/02/06 06:25:23;;;;;;;16.55;6.30;;;7.40;99.90;;;;;;4994114;28;20034;-48
2024/02/06 06:27:49;;;;;;;14.77;6.38;;;7.40;99.90;;;;;;4995340;28;20034;-48
2024/02/06 06:30:16;;;;;;;14.10;4.85;;;7.50;99.90;;;;;;4995724;28;20395;-49
2024/02/06 06:32:41;;;;;;;11.77;5.18;;;7.70;99.90;;;;;;4995400;28;20022;-47
2024/02/06 06:35:08;;;;;;;11.23;5.78;;;7.50;99.90;;;;;;4995103;28;20018;-47
2024/02/06 06:37:33;;;;;;;18.17;4.90;;;7.50;99.90;;;;;;4995322;28;20479;-51
2024/02/06 06:40:01;;;;;;;8.95;4.75;;;7.50;99.90;;;;;;4994153;28;20030;-47
2024/02/06 06:42:26;;;;;;;10.70;5.15;;;7.50;99.90;;;;;;4995340;28;20069;-46
2024/02/06 06:44:52;;;;;;;6.53;4.47;;;7.50;99.90;;;;;;4995878;28;20038;-48
2024/02/06 06:47:18;;;;;;;12.05;5.20;;;7.50;99.90;;;;;;4997762;28;20038;-55
2024/02/06 06:49:43;;;;;;;8.73;5.05;;;7.50;99.90;;;;;;4997072;28;20507;-57
2024/02/06 06:52:09;;;;;;;13.07;5.00;;;7.60;99.90;;;;;;5000985;28;20524;-53
2024/02/06 06:54:35;;;;;;;14.10;5.32;;;7.50;99.90;;;;;;4998146;28;20022;-48
2024/02/06 06:57:03;;;;;;;19.83;6.07;;;7.50;99.90;;;;;;4996294;28;20106;-48
2024/02/06 06:59:32;;;;;;;11.25;4.82;;;7.50;99.90;;;;;;4996910;28;20102;-51
2024/02/06 07:01:59;;;;;;;11.68;5.35;;;7.50;99.90;;;;;;4995056;28;20090;-51
2024/02/06 07:04:28;;;;;;;10.07;5.18;;;7.50;99.90;;;;;;4994897;28;20057;-52
2024/02/06 07:06:54;;;;;;;13.98;5.88;;;7.60;99.90;;;;;;4995052;28;20487;-51
2024/02/06 07:09:21;;;;;;;9.68;6.60;;;7.50;99.90;;;;;;4994160;28;20038;-52
2024/02/06 07:11:48;;;;;;;9.30;5.00;;;7.40;99.90;;;;;;4994257;28;20041;-51
2024/02/06 07:14:14;;;;;;;10.10;4.75;;;7.40;99.90;;;;;;4995574;28;20477;-52
2024/02/06 07:16:39;;;;;;;7.88;4.78;;;7.40;99.90;;;;;;4995438;28;20395;-50
2024/02/06 07:19:06;;;;;;;13.52;5.55;;;7.40;99.90;;;;;;4994241;28;20071;-48
2024/02/06 07:21:31;;;;;;;14.77;5.38;;;7.40;99.90;;;;;;4995921;28;20026;-52
2024/02/06 07:23:57;;;;;;;7.07;4.30;;;7.40;99.90;;;;;;4994953;28;20036;-50
2024/02/06 07:26:22;;;;;;;6.53;4.63;;;7.50;99.90;;;;;;4995046;28;20399;-54
2024/02/06 07:28:48;;;;;;;6.18;4.15;;;7.40;99.90;;;;;;4994762;28;20458;-48
2024/02/06 07:31:16;;;;;;;8.38;4.95;;;7.50;99.90;;;;;;4994904;28;20089;-50
2024/02/06 07:33:42;;;;;;;7.68;4.85;;;7.50;99.90;;;;;;5009411;28;20027;-53
2024/02/06 07:36:07;;;;;;;8.15;4.80;;;7.50;99.90;;;;;;4994544;28;20101;-54
2024/02/06 07:38:33;;;;;;;15.90;6.13;;;7.50;99.90;;;;;;4994585;28;20431;-51
2024/02/06 07:40:59;;;;;;;9.68;5.68;;;7.50;99.90;;;;;;4994175;28;20495;-48
2024/02/06 07:43:26;;;;;;;9.25;5.40;;;7.50;99.90;;;;;;4993821;28;20495;-48
2024/02/06 07:45:52;;;;;;;15.45;5.43;;;7.50;99.90;;;;;;5008939;28;20405;-52
2024/02/06 07:48:18;;;;;;;10.45;4.97;;;7.50;99.90;;;;;;4993875;28;20038;-52
2024/02/06 07:50:47;;;;;;;8.23;5.95;;;7.60;99.90;;;;;;4993951;28;20037;-51
2024/02/06 07:53:13;;;;;;;9.85;5.40;;;7.60;99.90;;;;;;4993907;28;20506;-50
2024/02/06 07:55:42;;;;;;;11.68;5.60;;;7.60;99.90;;;;;;4993848;28;20034;-51
2024/02/06 07:58:07;;;;;;;15.07;5.95;;;7.60;99.90;;;;;;4992555;28;20029;-47
2024/02/06 08:00:33;;;;;;;12.40;6.40;;;7.60;99.90;;;;;;4994009;28;20030;-48
2024/02/06 08:02:59;;;;;;;10.68;5.78;;;7.70;99.90;;;;;;4993898;28;20411;-48
2024/02/06 08:05:24;;;;;;;11.05;6.35;;;7.70;99.90;;;;;;4993774;28;20033;-51
2024/02/06 08:07:50;;;;;;;21.77;8.50;;;7.80;99.90;;;;;;4993362;28;20030;-49
2024/02/06 08:10:17;;;;;;;11.57;6.38;;;7.80;99.90;;;;;;5008326;28;20030;-48
2024/02/06 08:12:43;;;;;;;17.33;7.22;;;7.80;99.90;;;;;;4993409;28;20046;-51
2024/02/06 08:15:09;;;;;;;8.32;5.93;;;7.80;99.90;;;;;;4992622;28;20112;-50
2024/02/06 08:17:40;;;;;;;17.13;7.28;;;7.90;99.90;;;;;;4993381;28;20018;-52
2024/02/06 08:20:09;;;;;;;9.85;6.95;;;7.90;99.90;;;;;;4993529;28;20041;-49
2024/02/06 08:22:34;;;;;;;14.90;6.80;;;7.90;99.90;;;;;;4993720;28;20022;-49
2024/02/06 08:25:00;;;;;;;10.90;6.47;;;7.90;99.90;;;;;;4993542;28;20078;-50
2024/02/06 08:27:25;;;;;;;13.88;6.82;;;7.90;99.90;;;;;;4993191;28;20060;-50
2024/02/06 08:29:51;;;;;;;18.08;6.38;;;7.90;99.90;;;;;;5008583;28;20023;-52
2024/02/06 08:32:16;;;;;;;11.75;6.82;;;7.90;99.90;;;;;;4993699;28;20026;-48
2024/02/06 08:34:42;;;;;;;16.23;6.90;;;7.90;99.90;;;;;;4993193;28;20030;-51
2024/02/06 08:37:07;;;;;;;10.88;6.65;;;7.90;99.90;;;;;;4993300;28;20082;-55
2024/02/06 08:39:33;;;;;;;8.43;6.25;;;7.90;99.90;;;;;;5000204;28;20106;-53
2024/02/06 08:41:58;;;;;;;13.25;6.50;;;7.90;99.90;;;;;;4993106;28;20045;-55
2024/02/06 08:44:25;;;;;;;11.10;6.68;;;7.90;99.90;;;;;;4976527;28;20117;-55
2024/02/06 08:46:51;;;;;;;10.00;6.22;;;8.00;99.90;;;;;;4975231;28;20041;-50
2024/02/06 08:49:17;;;;;;;16.33;7.47;;;8.00;99.90;;;;;;4992198;28;20117;-52
2024/02/06 08:51:43;;;;;;;14.93;7.32;;;8.00;99.90;;;;;;4978847;28;20117;-51
2024/02/06 08:54:09;;;;;;;10.23;6.88;;;8.00;99.90;;;;;;4992857;28;20092;-51
2024/02/06 08:56:34;;;;;;;11.85;6.75;;;8.00;99.90;;;;;;4983601;28;20480;-54
2024/02/06 08:59:01;;;;;;;12.90;7.38;;;;;;;;;;4972149;28;20026;-48
2024/02/06 09:01:27;;;;;;;16.83;7.20;;;8.00;99.90;;;;;;4973550;28;20027;-50
2024/02/06 09:03:53;;;;;;;14.60;7.25;;;8.00;99.90;;;;;;4971669;28;20069;-56
2024/02/06 09:06:19;;;;;;;15.45;7.68;;;8.00;99.90;;;;;;4956062;28;20073;-54
2024/02/06 09:08:45;;;;;;;13.98;7.20;;;8.10;99.90;;;;;;4982423;28;20479;-50
2024/02/06 09:11:11;;;;;;;12.68;6.30;;;8.10;99.90;;;;;;4992447;28;20109;-53
2024/02/06 09:13:36;;;;;;;16.63;6.80;;;8.10;99.90;;;;;;4992224;28;20066;-53
2024/02/06 09:16:02;;;;;;;17.50;6.35;;;8.10;99.90;;;;;;4992451;28;20030;-51
2024/02/06 09:18:28;;;;;;;8.45;6.25;;;8.10;99.90;;;;;;4992735;28;20554;-52
2024/02/06 09:20:54;;;;;;;15.50;6.72;;;8.20;99.90;;;;;;4990781;28;20029;-55
2024/02/06 09:23:19;;;;;;;15.68;6.32;;;8.20;99.90;;;;;;4991005;28;20062;-55
2024/02/06 09:25:45;;;;;;;17.10;6.55;;;8.20;99.90;;;;;;4991065;28;20030;-49
2024/02/06 09:28:11;;;;;;;9.68;5.88;;;8.20;99.90;;;;;;4991872;28;20554;-54
2024/02/06 09:30:41;;;;;;;9.90;6.25;;;8.20;99.90;;;;;;4974055;28;20488;-51
2024/02/06 09:33:06;;;;;;;12.32;6.10;;;8.20;99.90;;;;;;4982940;28;20034;-49
2024/02/06 09:35:32;;;;;;;12.75;7.18;;;8.20;99.90;;;;;;4955102;28;20041;-52
2024/02/06 09:37:57;;;;;;;16.77;6.20;;;8.20;99.90;;;;;;4971346;28;20022;-49
2024/02/06 09:40:24;;;;;;;15.18;6.80;;;8.20;99.90;;;;;;4971386;28;20031;-51
2024/02/06 09:42:50;;;;;;;13.40;6.38;;;8.20;99.90;;;;;;4971278;28;20058;-49
2024/02/06 09:45:16;;;;;;;11.98;6.25;;;8.20;99.90;;;;;;4972490;28;20413;-50
2024/02/06 09:47:42;;;;;;;10.25;6.15;;;8.30;99.90;;;;;;4972448;28;20240;-51
2024/02/06 09:50:10;;;;;;;12.10;6.60;;;8.20;99.90;;;;;;4972596;28;20045;-48
2024/02/06 09:52:36;;;;;;;14.98;6.82;;;8.30;99.90;;;;;;4972628;28;20033;-48
2024/02/06 09:55:11;;;;;;;9.07;5.93;;;8.30;99.90;;;;;;4971102;28;20019;-51
2024/02/06 09:57:37;;;;;;;;;;;8.20;99.90;;;;;;4972945;28;20034;-53
2024/02/06 10:00:04;;;;;;;;;;;8.30;99.90;;;;;;4955713;28;19906;-52
2024/02/06 10:02:30;;;;;;;12.10;6.45;;;8.30;99.90;;;;;;4954945;28;19909;-47
2024/02/06 10:04:57;;;;;;;13.32;6.03;;;8.30;99.90;;;;;;4972566;28;20035;-49
2024/02/06 10:07:24;;;;;;;10.07;5.90;;;8.40;99.90;;;;;;4973270;28;20031;-55
2024/02/06 10:09:51;;;;;;;10.52;5.90;;;8.30;99.90;;;;;;4981786;28;20038;-50
2024/02/06 10:12:17;;;;;;;10.82;5.85;;;8.30;99.90;;;;;;4973293;28;20081;-46
2024/02/06 10:14:43;;;;;;;8.35;5.25;;;8.30;99.90;;;;;;4976255;28;20054;-48
2024/02/06 10:17:09;;;;;;;11.35;6.28;;;8.30;99.90;;;;;;4991216;28;20077;-48
2024/02/06 10:19:35;;;;;;;10.20;5.68;;;8.40;99.90;;;;;;4988181;28;20101;-56
2024/02/06 10:22:01;;;;;;;7.68;4.75;;;8.40;99.90;;;;;;4978729;28;20062;-47
2024/02/06 10:24:29;;;;;;;15.43;5.05;;;8.50;99.90;;;;;;4980706;28;20042;-47
2024/02/06 10:27:15;;;;;;;8.23;5.50;;;8.50;99.90;;;;;;4990641;28;20026;-47
2024/02/06 10:29:41;;;;;;;8.13;5.28;;;8.60;99.90;;;;;;4979626;28;20039;-47
2024/02/06 10:32:13;;;;;;;8.10;4.75;;;8.50;99.90;;;;;;4973591;28;20096;-53
2024/02/06 10:34:38;;;;;;;11.10;5.60;;;8.50;99.90;;;;;;4973677;28;20492;-50
2024/02/06 10:37:04;;;;;;;9.25;4.80;;;8.50;99.90;;;;;;4982998;28;20035;-49
2024/02/06 10:39:30;;;;;;;10.48;4.85;;;8.60;99.90;;;;;;4975957;28;20313;-48
2024/02/06 10:42:02;;;;;;;12.52;4.38;;;8.60;99.90;;;;;;4975624;28;20034;-48
2024/02/06 10:44:28;;;;;;;9.82;5.53;;;8.60;99.90;;;;;;4976341;28;20027;-51
2024/02/06 10:47:04;;;;;;;10.63;5.25;;;8.60;99.90;;;;;;4979531;28;20027;-48
2024/02/06 10:49:30;;;;;;;12.05;5.05;;;8.60;99.90;;;;;;4975889;28;20031;-49
2024/02/06 10:52:08;;;;;;;11.23;5.72;;;8.70;99.90;;;;;;4975602;28;20031;-50
2024/02/06 10:54:34;;;;;;;12.43;5.00;;;8.70;99.90;;;;;;4980399;28;20026;-49
2024/02/06 10:57:08;;;;;;;10.73;4.47;;;8.70;99.90;;;;;;4994680;28;20109;-48
2024/02/06 10:59:44;;;;;;;6.85;4.32;;;8.70;99.90;;;;;;4995221;28;20080;-49
2024/02/06 11:02:23;;;;;;;7.65;4.07;;;8.70;99.90;;;;;;4994848;28;20034;-47
2024/02/06 11:05:05;;;;;;;8.25;4.93;;;8.70;99.90;;;;;;4992810;28;20034;-49
2024/02/06 11:07:36;;;;;;;6.03;4.28;;;8.70;99.90;;;;;;4994669;28;20069;-46
2024/02/06 11:10:06;;;;;;;7.30;4.00;;;8.70;99.90;;;;;;4994395;28;20034;-48
2024/02/06 11:12:33;;;;;;;15.38;5.15;;;8.70;99.90;;;;;;4995286;28;20391;-46
2024/02/06 11:15:01;;;;;;;7.30;4.43;;;8.70;99.90;;;;;;4994123;28;20030;-47
2024/02/06 11:17:29;;;;;;;6.68;4.22;;;8.80;99.90;;;;;;4993326;28;20027;-49
2024/02/06 11:20:04;;;;;;;7.63;4.80;;;8.80;99.90;;;;;;4995045;28;20038;-47
2024/02/06 11:22:40;;;;;;;9.35;4.28;;;8.90;99.90;;;;;;4993298;28;20050;-44
2024/02/06 11:25:09;;;;;;;8.13;4.65;;;8.90;99.90;;;;;;4993938;28;20061;-50
2024/02/06 11:27:38;;;;;;;6.20;4.18;;;9.00;99.90;;;;;;4994404;28;20022;-50
2024/02/06 11:30:06;;;;;;;10.00;4.63;;;9.00;99.90;;;;;;4959913;28;20412;-47
2024/02/06 11:32:32;;;;;;;12.23;5.40;;;9.00;99.90;;;;;;4974783;28;20023;-47
2024/02/06 11:34:58;;;;;;;10.38;4.53;;;9.00;99.90;;;;;;4974838;28;20487;-50
2024/02/06 11:37:31;;;;;;;8.68;5.85;;;9.00;99.90;;;;;;4974889;28;20264;-47
2024/02/06 11:40:10;;;;;;;9.63;4.82;;;9.00;99.90;;;;;;4981249;28;20397;-48
2024/02/06 11:42:37;;;;;;;11.45;4.68;;;9.10;99.90;;;;;;4994128;28;20027;-48
2024/02/06 11:45:19;;;;;;;21.45;10.50;;;9.10;99.90;;;;;;4982041;28;20528;-50
2024/02/06 11:47:55;;;;;;;12.00;7.13;;;9.10;99.90;;;;;;4974467;28;20076;-50
2024/02/06 11:50:41;;;;;;;9.40;5.45;;;9.10;99.90;;;;;;4973432;28;20094;-48
2024/02/06 11:53:14;;;;;;;9.18;5.85;;;9.10;99.90;;;;;;4974228;28;20392;-45
2024/02/06 11:55:42;;;;;;;6.30;4.78;;;9.10;99.90;;;;;;4974231;28;20559;-50
2024/02/06 11:58:09;;;;;;;6.40;4.68;;;9.10;99.90;;;;;;4992230;28;20037;-48
2024/02/06 12:00:35;;;;;;;8.80;4.45;;;9.00;99.90;;;;;;4993789;28;20034;-46
2024/02/06 12:03:00;;;;;;;13.88;5.30;;;9.00;99.90;;;;;;4993636;28;20053;-45
2024/02/06 12:05:26;;;;;;;11.13;4.90;;;9.00;99.90;;;;;;4993497;28;20022;-46
2024/02/06 12:07:56;;;;;;;7.35;4.53;;;9.10;99.90;;;;;;4993330;28;20042;-48
2024/02/06 12:10:27;;;;;;;7.20;5.28;;;9.10;99.90;;;;;;4992888;28;20034;-45
2024/02/06 12:12:54;;;;;;;6.88;4.88;;;9.10;99.90;;;;;;4992589;28;20080;-43
2024/02/06 12:15:20;;;;;;;12.65;5.50;;;;;;;;;;4993446;28;20019;-49
2024/02/06 12:17:47;;;;;;;11.18;5.30;;;9.10;99.90;;;;;;4992589;28;20034;-50
2024/02/06 12:20:13;;;;;;;10.68;4.70;;;9.20;99.90;;;;;;4992817;28;20034;-47
2024/02/06 12:22:38;;;;;;;10.38;4.82;;;9.20;99.90;;;;;;4982510;28;20026;-48
2024/02/06 12:25:04;;;;;;;6.90;4.32;;;9.20;99.90;;;;;;4993440;28;20104;-50
2024/02/06 12:27:31;;;;;;;13.15;4.53;;;9.20;99.90;;;;;;4972491;28;20061;-50
2024/02/06 12:29:56;;;;;;;15.10;5.10;;;9.20;99.90;;;;;;4973771;28;20031;-47
2024/02/06 12:32:22;;;;;;;7.28;4.78;;;9.20;99.90;;;;;;4973680;28;20027;-48
2024/02/06 12:34:47;;;;;;;13.57;4.97;;;9.30;99.90;;;;;;4983554;28;20054;-48
2024/02/06 12:37:13;;;;;;;10.80;5.13;;;9.30;99.90;;;;;;4992700;28;20057;-46
2024/02/06 12:39:38;;;;;;;8.18;4.80;;;9.40;99.90;;;;;;4992811;28;20077;-52
2024/02/06 12:42:06;;;;;;;8.77;4.82;;;9.40;99.90;;;;;;4993064;28;20069;-50
2024/02/06 12:44:32;;;;;;;10.43;5.10;;;9.40;99.90;;;;;;4992847;28;20042;-48
2024/02/06 12:47:00;;;;;;;6.90;4.82;;;9.50;99.90;;;;;;5010383;23;20030;-46